Time;durP1;ratioP1;P1;durP2;ratioP2;P2;SDS_P1;SDS_P2;PMS_P1;PMS_P2;Temp;Humidity;BMP_temperature;BMP_pressure;BME280_temperature;BME280_humidity;BME280_pressure;Samples;Min_cycle;Max_cycle;Signal;HPM_P1;HPM_P2
2023/08/27 00:01:36;;;;;;;3.63;3.13;;;17.30;99.90;;;;;;5036759;28;20549;-83
2023/08/27 00:04:03;;;;;;;5.40;3.17;;;17.30;99.90;;;;;;5036459;28;20462;-84
2023/08/27 00:06:30;;;;;;;5.40;3.43;;;17.30;99.90;;;;;;5035520;28;20541;-83
2023/08/27 00:08:57;;;;;;;3.70;3.40;;;17.30;99.90;;;;;;5037232;28;20465;-83
2023/08/27 00:11:25;;;;;;;4.00;2.90;;;17.30;99.90;;;;;;5035904;28;20489;-84
2023/08/27 00:13:52;;;;;;;5.23;2.93;;;17.30;99.90;;;;;;5035691;28;20928;-83
2023/08/27 00:16:20;;;;;;;3.97;2.77;;;17.30;99.90;;;;;;5034551;28;20972;-81
2023/08/27 00:18:46;;;;;;;3.97;3.57;;;17.30;99.90;;;;;;5034496;28;20451;-82
2023/08/27 00:21:13;;;;;;;6.23;3.40;;;17.30;99.90;;;;;;5035824;28;20487;-83
2023/08/27 00:23:40;;;;;;;4.90;3.00;;;17.30;99.90;;;;;;5036420;28;20556;-83
2023/08/27 00:26:07;;;;;;;4.20;3.10;;;17.30;99.90;;;;;;5033557;28;20436;-82
2023/08/27 00:28:35;;;;;;;6.17;3.97;;;17.20;99.90;;;;;;5034844;28;20836;-83
2023/08/27 00:31:03;;;;;;;4.33;3.47;;;17.20;99.90;;;;;;5034724;28;20475;-84
2023/08/27 00:33:30;;;;;;;9.77;4.33;;;17.20;99.90;;;;;;5034630;28;20585;-83
2023/08/27 00:35:57;;;;;;;5.20;4.20;;;17.20;99.90;;;;;;5032141;28;20457;-83
2023/08/27 00:38:23;;;;;;;6.27;3.93;;;17.10;99.90;;;;;;5044242;28;20602;-82
2023/08/27 00:40:50;;;;;;;5.50;3.57;;;17.10;99.90;;;;;;5038357;28;20476;-83
2023/08/27 00:43:17;;;;;;;6.77;3.80;;;17.10;99.90;;;;;;5034171;28;20500;-83
2023/08/27 00:45:46;;;;;;;5.20;3.63;;;17.10;99.90;;;;;;5033803;28;20520;-84
2023/08/27 00:48:13;;;;;;;5.10;3.40;;;17.10;99.90;;;;;;5034391;28;20451;-84
2023/08/27 00:50:40;;;;;;;4.90;3.80;;;17.00;99.90;;;;;;5033652;28;20476;-83
2023/08/27 00:53:07;;;;;;;4.67;3.43;;;17.00;99.90;;;;;;5033730;28;20482;-82
2023/08/27 00:55:36;;;;;;;4.00;2.70;;;17.00;99.90;;;;;;5032939;28;20461;-84
2023/08/27 00:58:03;;;;;;;5.60;2.70;;;17.00;99.90;;;;;;5033994;28;20451;-83
2023/08/27 01:00:31;;;;;;;5.60;2.63;;;16.90;99.90;;;;;;5033949;28;20480;-83
2023/08/27 01:02:59;;;;;;;4.57;3.03;;;16.90;99.90;;;;;;5034506;28;20455;-83
2023/08/27 01:05:26;;;;;;;5.30;2.40;;;16.90;99.90;;;;;;5033431;28;20995;-84
2023/08/27 01:08:00;;;;;;;5.60;2.87;;;16.90;99.90;;;;;;5033665;28;20465;-84
2023/08/27 01:10:33;;;;;;;6.90;2.70;;;16.80;99.90;;;;;;5034041;28;20491;-83
2023/08/27 01:13:02;;;;;;;4.03;2.40;;;16.70;99.90;;;;;;5035792;28;20559;-83
2023/08/27 01:15:30;;;;;;;3.93;2.60;;;16.70;99.90;;;;;;5037049;28;20550;-83
2023/08/27 01:18:00;;;;;;;3.93;2.60;;;16.60;99.90;;;;;;5039256;28;20457;-84
2023/08/27 01:20:27;;;;;;;3.43;2.90;;;16.70;99.90;;;;;;5037845;28;20486;-84
2023/08/27 01:22:55;;;;;;;4.00;2.73;;;16.60;99.90;;;;;;5037776;28;20531;-83
2023/08/27 01:25:26;;;;;;;2.93;2.27;;;16.60;99.90;;;;;;5037066;28;20464;-83
2023/08/27 01:27:59;;;;;;;4.53;2.80;;;16.50;99.90;;;;;;5037504;28;20947;-83
2023/08/27 01:30:32;;;;;;;3.13;2.70;;;16.50;99.90;;;;;;5037056;28;20500;-83
2023/08/27 01:33:03;;;;;;;4.67;3.10;;;16.50;99.90;;;;;;5037327;28;20483;-83
2023/08/27 01:35:31;;;;;;;2.87;2.57;;;16.50;99.90;;;;;;5037139;28;20535;-83
2023/08/27 01:38:00;;;;;;;3.63;2.90;;;16.40;99.90;;;;;;5036857;28;20453;-82
2023/08/27 01:40:27;;;;;;;4.63;2.43;;;16.40;99.90;;;;;;5037233;28;20468;-84
2023/08/27 01:42:54;;;;;;;3.10;2.37;;;16.40;99.90;;;;;;5036990;28;20456;-82
2023/08/27 01:45:22;;;;;;;4.07;3.10;;;16.30;99.90;;;;;;5037009;28;20454;-83
2023/08/27 01:47:49;;;;;;;3.27;2.60;;;16.30;99.90;;;;;;5036190;28;20452;-82
2023/08/27 01:50:16;;;;;;;5.33;3.10;;;16.30;99.90;;;;;;5036670;28;20575;-82
2023/08/27 01:52:42;;;;;;;7.17;3.10;;;16.30;99.90;;;;;;5037670;28;20452;-82
2023/08/27 01:55:11;;;;;;;3.43;2.10;;;16.20;99.90;;;;;;5036342;28;20859;-83
2023/08/27 01:57:38;;;;;;;2.90;2.60;;;16.20;99.90;;;;;;5017428;28;20549;-84
2023/08/27 02:00:08;;;;;;;4.93;2.30;;;16.20;99.90;;;;;;5016724;28;21081;-82
2023/08/27 02:02:36;;;;;;;3.70;2.80;;;16.20;99.90;;;;;;5026096;28;20462;-82
2023/08/27 02:05:04;;;;;;;3.63;2.53;;;16.10;99.90;;;;;;5036715;28;20879;-83
2023/08/27 02:07:31;;;;;;;3.90;2.50;;;16.20;99.90;;;;;;5036297;28;20494;-84
2023/08/27 02:09:58;;;;;;;4.27;3.10;;;16.20;99.90;;;;;;5036274;28;20977;-83
2023/08/27 02:12:26;;;;;;;4.27;2.77;;;16.20;99.90;;;;;;5036376;28;20470;-84
2023/08/27 02:14:53;;;;;;;3.70;2.40;;;16.10;99.90;;;;;;5037405;28;20488;-82
2023/08/27 02:17:20;;;;;;;3.47;2.73;;;16.10;99.90;;;;;;5036395;28;20555;-83
2023/08/27 02:19:47;;;;;;;4.57;2.77;;;16.10;99.90;;;;;;5037739;28;20445;-83
2023/08/27 02:22:14;;;;;;;3.70;2.57;;;16.10;99.90;;;;;;5036774;28;20454;-83
2023/08/27 02:24:41;;;;;;;4.10;2.33;;;16.00;99.90;;;;;;5035862;28;20466;-82
2023/08/27 02:27:08;;;;;;;3.43;2.73;;;16.00;99.90;;;;;;5035941;28;20445;-83
2023/08/27 02:29:36;;;;;;;3.80;2.77;;;16.00;99.90;;;;;;5035420;28;20437;-82
2023/08/27 02:32:03;;;;;;;3.30;2.53;;;16.00;99.90;;;;;;5036630;28;20479;-83
2023/08/27 02:34:30;;;;;;;2.90;2.50;;;16.00;99.90;;;;;;5036472;28;21053;-82
2023/08/27 02:36:57;;;;;;;2.83;2.53;;;16.00;99.90;;;;;;5036404;28;20452;-82
2023/08/27 02:39:24;;;;;;;2.97;2.60;;;16.00;99.90;;;;;;5037473;28;20452;-84
2023/08/27 02:41:51;;;;;;;3.00;1.93;;;16.00;99.90;;;;;;5037177;28;20469;-83
2023/08/27 02:44:18;;;;;;;3.10;2.07;;;15.90;99.90;;;;;;5037672;28;20456;-83
2023/08/27 02:46:46;;;;;;;7.00;2.20;;;16.00;99.90;;;;;;5037300;28;20466;-83
2023/08/27 02:49:12;;;;;;;4.13;2.70;;;15.90;99.90;;;;;;5038077;28;20449;-83
2023/08/27 02:51:39;;;;;;;6.77;3.80;;;15.90;99.90;;;;;;5038093;28;20486;-83
2023/08/27 02:54:06;;;;;;;4.23;2.40;;;15.90;99.90;;;;;;5018433;28;20589;-84
2023/08/27 02:56:33;;;;;;;3.20;2.27;;;15.90;99.90;;;;;;5017442;28;20532;-82
2023/08/27 02:59:00;;;;;;;12.70;2.80;;;15.90;99.90;;;;;;5017820;28;20453;-82
2023/08/27 03:01:27;;;;;;;3.17;2.50;;;15.80;99.90;;;;;;5017539;28;20483;-83
2023/08/27 03:03:55;;;;;;;3.77;2.40;;;15.80;99.90;;;;;;5018261;28;20907;-83
2023/08/27 03:06:22;;;;;;;3.30;2.53;;;15.90;99.90;;;;;;5016849;28;20552;-83
2023/08/27 03:08:49;;;;;;;4.90;2.73;;;15.90;99.90;;;;;;5018832;28;20456;-86
2023/08/27 03:11:16;;;;;;;3.70;2.13;;;15.80;99.90;;;;;;5037209;28;20568;-84
2023/08/27 03:13:42;;;;;;;5.23;2.77;;;15.80;99.90;;;;;;5037041;28;20488;-84
2023/08/27 03:16:10;;;;;;;2.80;2.10;;;15.80;99.90;;;;;;5036815;28;20949;-84
2023/08/27 03:18:39;;;;;;;3.30;2.57;;;15.70;99.90;;;;;;5052034;28;20479;-83
2023/08/27 03:21:07;;;;;;;3.33;2.70;;;15.70;99.90;;;;;;5055537;28;20512;-83
2023/08/27 03:23:35;;;;;;;4.83;2.77;;;15.70;99.90;;;;;;5039724;28;20890;-82
2023/08/27 03:26:03;;;;;;;3.03;2.10;;;15.70;99.90;;;;;;5037953;28;20453;-83
2023/08/27 03:28:30;;;;;;;2.47;2.00;;;15.70;99.90;;;;;;5038005;28;20476;-83
2023/08/27 03:30:57;;;;;;;3.23;2.30;;;15.70;99.90;;;;;;5040397;28;20556;-83
2023/08/27 03:33:24;;;;;;;3.27;1.70;;;15.70;99.90;;;;;;5053844;28;20544;-82
2023/08/27 03:35:56;;;;;;;2.47;2.20;;;15.70;99.90;;;;;;5051551;28;20931;-83
2023/08/27 03:38:24;;;;;;;3.00;2.67;;;15.70;99.90;;;;;;5053382;28;20492;-82
2023/08/27 03:40:52;;;;;;;3.67;2.97;;;15.60;99.90;;;;;;5052636;28;20469;-82
2023/08/27 03:43:22;;;;;;;3.37;2.27;;;15.60;99.90;;;;;;5053149;28;20523;-82
2023/08/27 03:45:49;;;;;;;2.50;2.10;;;15.60;99.90;;;;;;5039670;28;20445;-82
2023/08/27 03:48:16;;;;;;;2.93;2.20;;;15.60;99.90;;;;;;5035119;28;20474;-82
2023/08/27 03:50:43;;;;;;;5.23;2.53;;;15.50;99.90;;;;;;5034000;28;20488;-82
2023/08/27 03:53:10;;;;;;;5.20;2.23;;;15.50;99.90;;;;;;5034019;28;20468;-83
2023/08/27 03:55:41;;;;;;;3.47;2.63;;;15.50;99.90;;;;;;5034491;28;20598;-82
2023/08/27 03:58:09;;;;;;;3.60;2.20;;;15.50;99.90;;;;;;5034430;28;20459;-82
2023/08/27 04:00:36;;;;;;;4.03;2.40;;;15.50;99.90;;;;;;5034782;28;20475;-82
2023/08/27 04:03:04;;;;;;;4.07;2.70;;;15.50;99.90;;;;;;5034582;28;21028;-82
2023/08/27 04:05:31;;;;;;;2.63;1.93;;;15.50;99.90;;;;;;5033630;28;21143;-82
2023/08/27 04:07:58;;;;;;;3.30;2.13;;;15.50;99.90;;;;;;5035190;28;20455;-83
2023/08/27 04:10:25;;;;;;;2.80;2.37;;;15.50;99.90;;;;;;5034231;28;20472;-82
2023/08/27 04:12:54;;;;;;;3.17;2.57;;;15.50;99.90;;;;;;5034915;28;20457;-82
2023/08/27 04:15:21;;;;;;;2.40;1.87;;;15.50;99.90;;;;;;5037858;28;20486;-82
2023/08/27 04:17:48;;;;;;;3.90;2.40;;;15.50;99.90;;;;;;5048312;28;20539;-82
2023/08/27 04:20:15;;;;;;;2.93;2.00;;;15.50;99.90;;;;;;5036225;28;20476;-82
2023/08/27 04:22:42;;;;;;;2.90;2.10;;;15.40;99.90;;;;;;5036153;28;20459;-82
2023/08/27 04:25:09;;;;;;;2.70;1.73;;;15.40;99.90;;;;;;5037061;28;20539;-83
2023/08/27 04:27:36;;;;;;;4.37;2.20;;;15.40;99.90;;;;;;5038469;28;20456;-84
2023/08/27 04:30:06;;;;;;;2.40;2.00;;;15.40;99.90;;;;;;5039942;28;21038;-83
2023/08/27 04:32:35;;;;;;;3.23;2.67;;;15.50;99.90;;;;;;5033803;28;20437;-83
2023/08/27 04:35:02;;;;;;;2.20;1.67;;;15.50;99.90;;;;;;5034278;28;20495;-83
2023/08/27 04:37:29;;;;;;;2.20;2.00;;;15.50;99.90;;;;;;5032955;28;20453;-81
2023/08/27 04:39:56;;;;;;;3.00;2.47;;;15.40;99.90;;;;;;5033821;28;20457;-82
2023/08/27 04:42:23;;;;;;;3.33;2.27;;;15.40;99.90;;;;;;5033760;28;20455;-83
2023/08/27 04:44:50;;;;;;;3.03;1.90;;;15.40;99.90;;;;;;5033601;28;20538;-82
2023/08/27 04:47:18;;;;;;;2.70;2.20;;;15.40;99.90;;;;;;5033816;28;20452;-82
2023/08/27 04:49:45;;;;;;;2.27;1.60;;;15.40;99.90;;;;;;5037390;28;20455;-82
2023/08/27 04:52:14;;;;;;;5.90;2.30;;;15.50;99.90;;;;;;5038656;28;20460;-82
2023/08/27 04:54:41;;;;;;;3.20;1.70;;;15.50;99.90;;;;;;5037702;28;20495;-82
2023/08/27 04:57:08;;;;;;;2.50;2.30;;;15.50;99.90;;;;;;5037596;28;20837;-82
2023/08/27 04:59:35;;;;;;;2.70;2.17;;;15.60;99.90;;;;;;5038787;28;20480;-82
2023/08/27 05:02:02;;;;;;;3.60;2.20;;;15.60;99.90;;;;;;5037929;28;20480;-82
2023/08/27 05:04:30;;;;;;;3.43;2.20;;;15.70;99.90;;;;;;5037710;28;20483;-82
2023/08/27 05:06:57;;;;;;;2.37;1.90;;;15.80;99.90;;;;;;5037265;28;20539;-82
2023/08/27 05:09:26;;;;;;;3.30;1.80;;;15.80;99.90;;;;;;5037428;28;20457;-83
2023/08/27 05:11:53;;;;;;;2.27;1.73;;;15.80;99.90;;;;;;5064931;22;20499;-82
2023/08/27 05:14:20;;;;;;;2.90;2.40;;;15.90;99.90;;;;;;5058406;28;20447;-82
2023/08/27 05:16:46;;;;;;;3.23;1.53;;;15.90;99.90;;;;;;5057624;28;20455;-82
2023/08/27 05:19:13;;;;;;;2.73;2.40;;;15.90;99.90;;;;;;5058800;28;20450;-82
2023/08/27 05:21:41;;;;;;;3.87;2.00;;;16.00;99.90;;;;;;5046960;28;20472;-82
2023/08/27 05:24:08;;;;;;;1.93;1.57;;;16.00;99.90;;;;;;5031437;28;20963;-81
2023/08/27 05:26:35;;;;;;;2.50;1.70;;;16.00;99.90;;;;;;5035318;28;20452;-82
2023/08/27 05:29:02;;;;;;;2.53;1.77;;;16.10;99.90;;;;;;5038373;28;20457;-81
2023/08/27 05:31:29;;;;;;;2.33;1.50;;;16.20;99.90;;;;;;5037811;28;20479;-80
2023/08/27 05:33:56;;;;;;;3.10;1.70;;;16.20;99.90;;;;;;5037861;28;20458;-81
2023/08/27 05:36:23;;;;;;;2.70;1.80;;;16.30;99.90;;;;;;5036656;28;20499;-79
2023/08/27 05:38:51;;;;;;;2.40;1.80;;;16.30;99.90;;;;;;5037578;28;20452;-81
2023/08/27 05:41:17;;;;;;;3.13;2.10;;;16.40;99.90;;;;;;5037975;28;20476;-80
2023/08/27 05:43:44;;;;;;;2.10;1.70;;;16.40;99.90;;;;;;5035983;28;20983;-80
2023/08/27 05:46:11;;;;;;;3.50;2.03;;;16.40;99.90;;;;;;5036666;28;20455;-81
2023/08/27 05:48:38;;;;;;;2.10;1.70;;;16.50;99.90;;;;;;5037696;28;20451;-81
2023/08/27 05:51:05;;;;;;;2.00;1.57;;;16.40;99.90;;;;;;5037701;28;21027;-80
2023/08/27 05:53:32;;;;;;;4.07;2.23;;;16.40;99.90;;;;;;5037682;28;20478;-81
2023/08/27 05:56:00;;;;;;;2.60;1.63;;;16.40;99.90;;;;;;5033521;28;20491;-80
2023/08/27 05:58:27;;;;;;;2.43;1.80;;;16.20;99.90;;;;;;5033839;28;20833;-79
2023/08/27 06:00:54;;;;;;;2.30;1.60;;;16.30;99.90;;;;;;5031614;28;20558;-81
2023/08/27 06:03:21;;;;;;;2.73;1.70;;;16.30;99.90;;;;;;5032839;28;20466;-81
2023/08/27 06:05:48;;;;;;;8.60;3.03;;;16.30;99.90;;;;;;5032958;28;20468;-80
2023/08/27 06:08:15;;;;;;;3.40;1.50;;;16.30;99.90;;;;;;5030467;28;20479;-80
2023/08/27 06:10:41;;;;;;;2.50;1.53;;;16.20;99.90;;;;;;5031369;28;21132;-79
2023/08/27 06:13:09;;;;;;;3.07;1.60;;;16.30;99.90;;;;;;5037087;28;20446;-80
2023/08/27 06:15:37;;;;;;;3.60;1.50;;;16.30;99.90;;;;;;5036945;28;20889;-80
2023/08/27 06:18:04;;;;;;;2.73;1.87;;;16.40;99.90;;;;;;5037558;28;20496;-80
2023/08/27 06:20:33;;;;;;;3.03;1.87;;;16.30;99.90;;;;;;5036129;28;21042;-80
2023/08/27 06:23:00;;;;;;;3.10;1.93;;;16.40;99.90;;;;;;5030122;28;20456;-80
2023/08/27 06:25:27;;;;;;;1.80;1.53;;;16.40;99.90;;;;;;5036139;28;20449;-80
2023/08/27 06:27:55;;;;;;;2.50;1.80;;;16.40;99.90;;;;;;5032132;28;20461;-78
2023/08/27 06:30:23;;;;;;;3.70;1.50;;;16.50;99.90;;;;;;5035173;28;20448;-80
2023/08/27 06:32:50;;;;;;;3.20;1.80;;;16.50;99.90;;;;;;5037838;28;20517;-80
2023/08/27 06:35:17;;;;;;;2.80;1.43;;;16.60;99.90;;;;;;5034042;28;20481;-79
2023/08/27 06:37:44;;;;;;;4.60;1.60;;;16.70;99.90;;;;;;5035590;28;20464;-80
2023/08/27 06:40:12;;;;;;;2.40;2.20;;;16.70;99.90;;;;;;5037373;28;20462;-80
2023/08/27 06:42:39;;;;;;;2.90;2.30;;;16.80;99.90;;;;;;5038472;28;20550;-81
2023/08/27 06:45:07;;;;;;;2.70;1.90;;;16.70;99.90;;;;;;5037644;28;20481;-79
2023/08/27 06:47:35;;;;;;;4.20;2.20;;;16.80;99.90;;;;;;5028361;28;20460;-81
2023/08/27 06:50:04;;;;;;;6.50;2.70;;;16.80;99.90;;;;;;5030118;28;20459;-80
2023/08/27 06:52:31;;;;;;;2.70;2.23;;;16.80;99.90;;;;;;5044635;28;20478;-79
2023/08/27 06:54:58;;;;;;;2.97;1.83;;;16.80;99.90;;;;;;5037073;28;20939;-81
2023/08/27 06:57:25;;;;;;;2.93;2.13;;;16.80;99.90;;;;;;5034331;28;20538;-81
2023/08/27 06:59:52;;;;;;;3.93;2.23;;;16.90;99.90;;;;;;5036030;28;20477;-81
2023/08/27 07:02:19;;;;;;;3.03;2.10;;;17.00;99.90;;;;;;5034383;28;20780;-81
2023/08/27 07:04:47;;;;;;;2.47;1.90;;;17.00;99.90;;;;;;5033438;28;20471;-81
2023/08/27 07:07:14;;;;;;;2.97;2.27;;;16.90;99.90;;;;;;5030423;28;20453;-83
2023/08/27 07:09:41;;;;;;;3.63;2.40;;;17.00;99.90;;;;;;5028298;28;20535;-80
2023/08/27 07:12:08;;;;;;;2.60;2.40;;;17.00;99.90;;;;;;5029336;28;20496;-82
2023/08/27 07:14:34;;;;;;;3.23;2.33;;;17.00;99.90;;;;;;5034246;28;20487;-83
2023/08/27 07:17:01;;;;;;;2.97;2.10;;;17.00;99.90;;;;;;5031060;28;20598;-81
2023/08/27 07:19:28;;;;;;;4.30;1.90;;;17.00;99.90;;;;;;5024224;28;20491;-81
2023/08/27 07:21:56;;;;;;;2.50;1.83;;;17.10;99.90;;;;;;5034382;28;20472;-80
2023/08/27 07:24:23;;;;;;;2.93;2.37;;;17.20;99.90;;;;;;5029368;28;20459;-81
2023/08/27 07:26:50;;;;;;;3.07;2.60;;;17.20;99.90;;;;;;5025401;28;20458;-80
2023/08/27 07:29:17;;;;;;;2.43;1.93;;;17.20;99.90;;;;;;5033701;28;21003;-80
2023/08/27 07:31:45;;;;;;;4.73;3.10;;;17.30;99.90;;;;;;5031278;28;20521;-80
2023/08/27 07:34:11;;;;;;;4.53;2.77;;;17.10;99.90;;;;;;5032004;28;20461;-81
2023/08/27 07:36:38;;;;;;;2.60;2.40;;;17.20;99.90;;;;;;5029549;28;20489;-81
2023/08/27 07:39:07;;;;;;;3.50;2.57;;;17.30;99.90;;;;;;5031123;28;20490;-81
2023/08/27 07:41:33;;;;;;;7.23;2.37;;;17.30;99.90;;;;;;5030425;28;21783;-80
2023/08/27 07:44:00;;;;;;;3.10;2.63;;;17.30;99.90;;;;;;5032181;28;20521;-79
2023/08/27 07:46:27;;;;;;;3.30;2.50;;;17.30;99.90;;;;;;5029212;28;20463;-81
2023/08/27 07:48:54;;;;;;;3.73;2.60;;;17.20;99.90;;;;;;5034476;28;20828;-79
2023/08/27 07:51:20;;;;;;;3.17;2.40;;;17.20;99.90;;;;;;5030200;28;20485;-81
2023/08/27 07:53:47;;;;;;;4.40;2.97;;;17.20;99.90;;;;;;5033737;28;20473;-80
2023/08/27 07:56:15;;;;;;;4.50;2.53;;;17.20;99.90;;;;;;5028269;28;20493;-80
2023/08/27 07:58:42;;;;;;;2.90;2.70;;;17.20;99.90;;;;;;5027948;28;20473;-79
2023/08/27 08:01:09;;;;;;;3.33;2.80;;;17.20;99.90;;;;;;5033271;28;20481;-80
2023/08/27 08:03:36;;;;;;;5.90;3.43;;;17.30;99.90;;;;;;5030866;28;20475;-79
2023/08/27 08:06:04;;;;;;;8.47;3.17;;;17.30;99.90;;;;;;5022861;28;20471;-80
2023/08/27 08:08:30;;;;;;;5.80;2.77;;;17.30;99.90;;;;;;5032082;28;20969;-79
2023/08/27 08:10:57;;;;;;;5.13;2.97;;;17.40;99.90;;;;;;5032934;28;20487;-79
2023/08/27 08:13:26;;;;;;;3.17;2.80;;;17.40;99.90;;;;;;5032795;28;21198;-80
2023/08/27 08:15:53;;;;;;;3.83;2.93;;;17.50;99.90;;;;;;5031883;28;21978;-80
2023/08/27 08:18:20;;;;;;;4.23;3.60;;;17.50;99.90;;;;;;5030333;28;20831;-80
2023/08/27 08:20:47;;;;;;;5.63;3.43;;;17.50;99.90;;;;;;5030301;28;20473;-80
2023/08/27 08:23:14;;;;;;;4.80;3.70;;;17.60;99.90;;;;;;5030452;28;20975;-81
2023/08/27 08:25:43;;;;;;;6.00;3.60;;;17.60;99.90;;;;;;5025751;28;20444;-80
2023/08/27 08:28:10;;;;;;;6.50;3.93;;;17.70;99.90;;;;;;5030065;28;20462;-80
2023/08/27 08:30:44;;;;;;;4.33;3.93;;;17.80;99.90;;;;;;5033950;28;20547;-80
2023/08/27 08:33:11;;;;;;;5.60;3.43;;;17.80;99.90;;;;;;5031687;28;20803;-80
2023/08/27 08:35:38;;;;;;;6.10;4.20;;;17.90;99.90;;;;;;5033559;28;20578;-81
2023/08/27 08:38:05;;;;;;;5.47;4.53;;;17.80;99.90;;;;;;5032550;28;20471;-80
2023/08/27 08:40:35;;;;;;;4.30;3.60;;;18.00;99.90;;;;;;5032971;28;20947;-80
2023/08/27 08:43:02;;;;;;;5.60;3.77;;;18.00;99.90;;;;;;5026946;28;20453;-80
2023/08/27 08:45:36;;;;;;;4.83;4.33;;;18.00;99.90;;;;;;5034262;28;20534;-79
2023/08/27 08:48:07;;;;;;;5.67;4.97;;;18.00;99.90;;;;;;5035424;28;20519;-80
2023/08/27 08:50:36;;;;;;;6.90;4.80;;;18.10;99.90;;;;;;5034499;28;20455;-81
2023/08/27 08:53:09;;;;;;;6.30;5.40;;;18.20;99.90;;;;;;5032784;28;20480;-80
2023/08/27 08:55:37;;;;;;;6.70;6.10;;;18.30;99.90;;;;;;5030566;28;20479;-81
2023/08/27 08:58:09;;;;;;;5.57;5.03;;;18.40;99.90;;;;;;5042809;28;20482;-79
2023/08/27 09:00:36;;;;;;;4.63;4.23;;;18.50;99.90;;;;;;5035356;28;20482;-80
2023/08/27 09:03:05;;;;;;;4.60;3.97;;;18.50;99.90;;;;;;5031657;28;20491;-80
2023/08/27 09:05:32;;;;;;;5.63;4.83;;;18.50;99.90;;;;;;5028651;28;20452;-80
2023/08/27 09:08:00;;;;;;;7.53;5.30;;;18.60;99.90;;;;;;5034193;28;20996;-80
2023/08/27 09:10:27;;;;;;;5.30;4.80;;;18.50;99.90;;;;;;5033597;28;20949;-79
2023/08/27 09:12:56;;;;;;;6.73;5.10;;;18.60;99.90;;;;;;5034273;28;20432;-80
2023/08/27 09:15:23;;;;;;;6.67;5.20;;;18.60;99.90;;;;;;5032568;28;20437;-81
2023/08/27 09:17:50;;;;;;;5.03;4.40;;;18.60;99.90;;;;;;5033722;28;20448;-80
2023/08/27 09:20:18;;;;;;;8.30;4.30;;;18.60;99.90;;;;;;5033352;28;20449;-80
2023/08/27 09:22:46;;;;;;;4.23;3.13;;;18.60;99.90;;;;;;5033517;28;20463;-81
2023/08/27 09:25:13;;;;;;;3.60;3.30;;;18.50;99.90;;;;;;5030532;28;20938;-77
2023/08/27 09:27:40;;;;;;;3.90;3.20;;;18.50;99.90;;;;;;5033782;28;20532;-81
2023/08/27 09:30:08;;;;;;;3.50;3.20;;;18.60;99.90;;;;;;5034227;28;20452;-81
2023/08/27 09:32:35;;;;;;;3.40;3.10;;;18.60;99.90;;;;;;5033619;28;20489;-79
2023/08/27 09:35:03;;;;;;;3.20;2.63;;;18.70;99.90;;;;;;5038439;28;20520;-79
2023/08/27 09:37:40;;;;;;;3.47;2.40;;;18.80;99.90;;;;;;5032043;28;20552;-78
2023/08/27 09:40:08;;;;;;;3.17;2.87;;;18.70;99.90;;;;;;5036682;28;20535;-80
2023/08/27 09:42:35;;;;;;;4.60;2.83;;;18.80;99.90;;;;;;5037274;28;20503;-81
2023/08/27 09:45:02;;;;;;;3.60;3.00;;;18.90;99.90;;;;;;5037426;28;20447;-80
2023/08/27 09:47:32;;;;;;;3.93;2.53;;;19.00;99.90;;;;;;5036034;28;20467;-80
2023/08/27 09:50:00;;;;;;;4.30;2.87;;;19.00;99.90;;;;;;5036338;28;20531;-80
2023/08/27 09:52:27;;;;;;;4.03;2.37;;;19.10;99.90;;;;;;5036798;28;20465;-81
2023/08/27 09:54:55;;;;;;;3.30;2.40;;;19.20;99.90;;;;;;5036498;28;20453;-79
2023/08/27 09:57:22;;;;;;;3.60;2.50;;;19.40;99.90;;;;;;5036734;28;20542;-81
2023/08/27 09:59:49;;;;;;;4.03;2.13;;;19.80;99.90;;;;;;5034952;28;20471;-80
2023/08/27 10:02:17;;;;;;;4.50;2.60;;;20.20;99.90;;;;;;5036573;28;20894;-81
2023/08/27 10:04:52;;;;;;;4.37;2.37;;;20.50;99.90;;;;;;5037108;28;20452;-82
2023/08/27 10:07:19;;;;;;;2.90;2.00;;;20.70;99.90;;;;;;5035187;28;20514;-80
2023/08/27 10:09:50;;;;;;;2.70;1.83;;;20.90;99.90;;;;;;5035873;28;21083;-81
2023/08/27 10:12:19;;;;;;;2.23;1.70;;;21.10;99.90;;;;;;5029582;28;20480;-82
2023/08/27 10:14:47;;;;;;;2.00;1.30;;;21.20;99.90;;;;;;5036667;28;20456;-80
2023/08/27 10:17:15;;;;;;;4.77;1.90;;;21.60;99.90;;;;;;5035594;28;20856;-82
2023/08/27 10:19:42;;;;;;;2.37;1.53;;;21.20;99.90;;;;;;5036625;28;20452;-81
2023/08/27 10:22:10;;;;;;;2.93;1.60;;;21.30;99.90;;;;;;5032224;28;20485;-81
2023/08/27 10:24:37;;;;;;;2.07;1.43;;;21.40;99.90;;;;;;5036342;28;20451;-80
2023/08/27 10:27:05;;;;;;;3.33;1.57;;;21.30;99.90;;;;;;5036040;28;20455;-81
2023/08/27 10:29:35;;;;;;;3.23;1.33;;;21.70;99.90;;;;;;5036874;28;20488;-80
2023/08/27 10:32:03;;;;;;;5.53;1.67;;;21.70;99.90;;;;;;5036198;28;20632;-82
2023/08/27 10:34:30;;;;;;;3.40;1.40;;;21.80;99.90;;;;;;5036716;28;20443;-78
2023/08/27 10:37:02;;;;;;;2.23;1.20;;;22.30;99.90;;;;;;5036331;28;20492;-78
2023/08/27 10:39:30;;;;;;;3.40;1.50;;;22.70;99.90;;;;;;5036800;28;20449;-79
2023/08/27 10:41:57;;;;;;;4.33;2.37;;;22.60;99.90;;;;;;5037398;28;20460;-82
2023/08/27 10:44:24;;;;;;;3.40;1.83;;;22.40;99.90;;;;;;5032790;28;20552;-82
2023/08/27 10:47:13;;;;;;;3.73;1.40;;;22.20;99.90;;;;;;5030741;28;20502;-79
2023/08/27 10:49:41;;;;;;;2.87;1.40;;;21.50;99.90;;;;;;5035182;28;20459;-79
2023/08/27 10:52:19;;;;;;;4.00;1.50;;;20.80;99.90;;;;;;5033480;28;20484;-80
2023/08/27 10:54:47;;;;;;;2.50;1.20;;;20.60;99.90;;;;;;5036504;28;20441;-82
2023/08/27 10:57:18;;;;;;;3.10;1.67;;;20.40;99.90;;;;;;5035052;28;20543;-82
2023/08/27 10:59:44;;;;;;;2.27;1.43;;;20.30;99.90;;;;;;5032465;28;20964;-81
2023/08/27 11:02:15;;;;;;;2.60;1.40;;;20.20;99.90;;;;;;5034845;28;20548;-79
2023/08/27 11:04:43;;;;;;;3.80;1.97;;;20.10;99.90;;;;;;5039158;28;20453;-80
2023/08/27 11:07:11;;;;;;;3.27;1.80;;;20.10;99.90;;;;;;5028151;28;20453;-79
2023/08/27 11:09:47;;;;;;;2.90;1.70;;;20.50;99.90;;;;;;5032016;28;20527;-81
2023/08/27 11:12:22;;;;;;;4.33;1.60;;;21.30;99.90;;;;;;5040566;22;20510;-84
2023/08/27 11:14:49;;;;;;;2.93;1.60;;;21.70;99.90;;;;;;5011668;28;20461;-83
2023/08/27 11:17:26;;;;;;;2.63;1.70;;;22.10;99.90;;;;;;5009294;28;20496;-84
2023/08/27 11:19:54;;;;;;;2.13;1.43;;;22.60;99.90;;;;;;5003479;28;20515;-85
2023/08/27 11:22:24;;;;;;;4.10;1.60;;;23.30;99.90;;;;;;5005719;28;20465;-84
2023/08/27 11:24:52;;;;;;;2.67;1.17;;;23.80;99.90;;;;;;5011285;28;20532;-84
2023/08/27 11:27:20;;;;;;;2.53;1.33;;;24.20;99.90;;;;;;5015184;28;20467;-85
2023/08/27 11:29:49;;;;;;;4.20;1.53;;;24.70;99.90;;;;;;5013211;28;20904;-84
2023/08/27 11:32:16;;;;;;;3.40;1.60;;;24.70;99.90;;;;;;5011450;28;20468;-84
2023/08/27 11:34:45;;;;;;;4.57;1.30;;;24.20;99.90;;;;;;5019215;28;20503;-83
2023/08/27 11:37:12;;;;;;;2.73;1.50;;;23.90;99.90;;;;;;5014732;28;20509;-84
2023/08/27 11:39:40;;;;;;;3.77;1.40;;;23.50;99.90;;;;;;5011674;28;20461;-83
2023/08/27 11:42:11;;;;;;;2.30;1.10;;;23.40;99.90;;;;;;5021245;28;20559;-83
2023/08/27 11:44:50;;;;;;;3.00;1.13;;;23.30;99.90;;;;;;5024225;28;20457;-83
2023/08/27 11:47:17;;;;;;;3.10;1.20;;;23.20;99.90;;;;;;5006175;28;20462;-84
2023/08/27 11:49:45;;;;;;;2.40;1.20;;;23.10;99.90;;;;;;5008174;28;20553;-84
2023/08/27 11:52:14;;;;;;;2.50;1.30;;;23.50;99.90;;;;;;5006703;28;20480;-83
2023/08/27 11:54:42;;;;;;;4.83;1.30;;;24.00;99.90;;;;;;5011711;28;20533;-84
2023/08/27 11:57:10;;;;;;;6.43;1.57;;;24.50;99.90;;;;;;5013247;28;20490;-84
2023/08/27 11:59:38;;;;;;;4.20;1.70;;;24.80;99.90;;;;;;5002823;28;20880;-83
2023/08/27 12:02:06;;;;;;;2.63;1.37;;;25.00;99.90;;;;;;5012058;28;20473;-83
2023/08/27 12:04:33;;;;;;;3.00;1.30;;;25.50;99.90;;;;;;5008802;28;20469;-83
2023/08/27 12:07:05;;;;;;;2.70;1.17;;;25.80;99.90;;;;;;5011995;28;20552;-82
2023/08/27 12:09:33;;;;;;;2.47;1.20;;;25.40;99.90;;;;;;5014270;28;20476;-82
2023/08/27 12:12:02;;;;;;;2.87;1.30;;;24.80;99.90;;;;;;5012237;28;20500;-83
2023/08/27 12:14:29;;;;;;;2.87;1.23;;;24.70;99.90;;;;;;5017848;28;20469;-84
2023/08/27 12:17:03;;;;;;;3.03;1.47;;;24.10;99.90;;;;;;5015541;28;20494;-83
2023/08/27 12:19:30;;;;;;;3.07;1.20;;;23.70;99.90;;;;;;5009354;28;20443;-83
2023/08/27 12:21:58;;;;;;;2.83;1.47;;;23.10;99.90;;;;;;5009843;28;20461;-84
2023/08/27 12:24:33;;;;;;;2.80;1.30;;;22.70;99.90;;;;;;5019702;28;20494;-83
2023/08/27 12:27:02;;;;;;;3.70;1.40;;;22.80;99.90;;;;;;5017864;28;20457;-83
2023/08/27 12:29:30;;;;;;;2.77;1.33;;;23.70;99.90;;;;;;5015253;28;20503;-83
2023/08/27 12:31:59;;;;;;;1.70;0.90;;;24.20;99.90;;;;;;5016849;28;20492;-83
2023/08/27 12:34:38;;;;;;;2.27;1.10;;;24.90;99.90;;;;;;5015004;28;20533;-83
2023/08/27 12:37:06;;;;;;;5.77;1.60;;;25.30;99.90;;;;;;5009799;28;21005;-83
2023/08/27 12:39:36;;;;;;;3.47;1.10;;;25.40;99.90;;;;;;5011626;28;20453;-84
2023/08/27 12:42:03;;;;;;;3.50;1.67;;;25.80;99.90;;;;;;5016362;28;20510;-84
2023/08/27 12:44:29;;;;;;;3.20;1.40;;;26.20;99.90;;;;;;5012159;28;20542;-84
2023/08/27 12:46:57;;;;;;;2.80;1.20;;;26.40;99.90;;;;;;5010876;28;20446;-84
2023/08/27 12:49:24;;;;;;;2.43;1.17;;;26.70;99.90;;;;;;5009626;28;20454;-83
2023/08/27 12:51:51;;;;;;;3.37;1.70;;;26.60;99.90;;;;;;5010500;28;20517;-85